Terminal Aerodrome Forecast
Issued by NWS

Home | Current Version | Previous Version | Text Only | Print | Product List | Glossary On
Versions: 1 2 3 4 5 6 7 8 9 10 11 12 13 14 15 16
000
FTUS43 KGLD 290534
TAFMCK
TAF
KMCK 290534Z 2906/3006 09006KT P6SM VCTS SCT090CB OVC200
     FM291000 10006KT P6SM FEW090 SCT200
     FM291400 04005KT P6SM FEW080 FEW250
     FM291700 32010KT P6SM FEW080 FEW250
     FM292300 35014KT P6SM FEW110 SCT200
     FM300200 02008KT P6SM SCT100 BKN150=

USA.gov is the U.S. government's official web portal to all federal, state and local government web resources and services.